Terminal Aerodrome Forecast
Issued by NWS Charleston, WV

Current Version | Previous Version | Graphics & Text | Print | Product List | Glossary On
Versions: 1 2 3 4 5 6 7 8 9 10 11 12 13 14 15 16 17 18 19 20 21 22 23 24 25 26 27 28
000
FTUS41 KRLX 141600 AAA
TAFEKN
TAF AMD
KEKN 141606Z 1416/1512 20012G23KT P6SM BKN150
     FM142000 21016G23KT P6SM SHRA VCTS OVC045CB
     FM150100 19009KT P6SM VCTS OVC030CB
     FM150200 19009KT 6SM SHRA VCTS OVC025CB
     FM150300 19008KT 5SM SHRA VCTS OVC020CB
     FM150800 21008KT 4SM SHRA VCTS OVC015CB=

USA.gov is the U.S. government's official web portal to all federal, state and local government web resources and services.